Lakeside, Texas
Current Conditions -  °F | °C
As of 1:52 AM on Monday 24 Nov 2014 (Local Time) from KNFW Reporting Station
Clear Clear  
Wind Chill: 50°   Ceiling: Unl
Heat Index: 50°   Visibility: 10mi
Dew Point: 35°   Wind: 7mph
Humidity: 57%   Direction: 300°WNW
Pressure: 29.93"   Gusts: NA
Location:  32.8392°N, 97.4646°W
Report Text: KNFW 240752Z AUTO 30006KT 10SM CLR 10/02 A2993 RMK AO2 SLP119 T01000017 CHINO N $
Loading
Personal Weather Stations






























Interactive Weather Map New forecast layout! Learn more

10-Day Weather Forecast

Advertisements
Track Severe Weather on mobile